Monte Mor, Brazil
Current Conditions -  °F | °C
As of 4:35 AM on Saturday 20 Dec 2014 (Local Time) from SBKP Reporting Station
Moderate Rain Moderate Rain  
Wind Chill: 68°   Ceiling: 8000
Heat Index: 68°   Visibility: 5mi
Dew Point: 66°   Wind: 6mph
Humidity: 94%   Direction: 340°NNW
Pressure: 29.91"   Gusts: NA
Location:  22.95°S, 47.32°W
Report Text: SBKP 200635Z 34005KT 8000 RA SCT040 BKN080 20/19 Q1013
Loading
Personal Weather Stations






























Interactive Weather Map New forecast layout! Learn more

10-Day Weather Forecast

Advertisements
Track Severe Weather on mobile